NCAR-RAP Real-Time Weather Data

Output produced by METARs form (23 June 2018  19:27 UTC)
found at http://weather.rap.ucar.edu/surface/
 
RJFT 231210Z VRB02KT 5000 -SHRA BR BCFG FEW001 BKN010 BKN015 19/19 Q1006 RMK 2ST001 5CU010 6CU015 A2972 FG ALL QUAD
RJFT 231200Z 07002KT 3500 -SHRA BR BCFG FEW001 SCT003 BKN010 19/19 Q1006
RJFT 231113Z 00000KT 2000 -SHRA BR BCFG FEW001 SCT002 BKN005 19/19 Q1006 RMK 2ST001 4ST002 5ST005 A2971 FG ALL QUAD
RJFT 231100Z VRB02KT 2000 -SHRA BR BCFG FEW001 SCT003 BKN010 19/19 Q1005
RJFT 231042Z 06002KT 2000 -SHRA BR BCFG FEW001 SCT003 BKN010 19/19 Q1005 RMK 2ST001 3ST003 6CU010 A2970 FG ALL QUAD
RJFT 231025Z 06003KT 1500 R07/P1800N -SHRA BR BCFG FEW001 SCT005 BKN010 19/19 Q1005 RMK 2ST001 4ST005 5CU010 A2970 FG ALL QUAD
RJFT 231000Z 00000KT 1500 R07/P1800N -SHRA BR FEW001 SCT002 BKN005 19/19 Q1006
RJFT 230941Z VRB02KT 1500 R07/P1800N -SHRA BR FEW001 SCT002 BKN005 19/19 Q1005 RMK 2ST001 3ST002 5ST005 A2970
RJFT 230930Z VRB02KT 1600 -SHRA BR FEW001 SCT002 BKN007 19/19 Q1005 RMK 2ST001 3ST002 5ST007 A2970
RJFT 230923Z VRB02KT 1500 R07/P1800N -SHRA BR FEW001 SCT004 BKN010 19/19 Q1005 RMK 2ST001 3ST004 5CU010 A2969
RJFT 230900Z 26003KT 1600 -SHRA BR FEW001 SCT010 BKN015 19/19 Q1005
RJFT 230844Z 32003KT 280V040 3500 -SHRA BR FEW001 SCT015 BKN025 19/19 Q1004 RMK 1ST001 4CU015 7CU025 A2967
RJFT 230838Z 33004KT 300V040 2000 SHRA BR FEW001 SCT015 BKN025 20/20 Q1004 RMK 1ST001 3CU015 7CU025 A2966
RJFT 230829Z 35003KT 300V030 2500 SHRA BR FEW004 SCT015 BKN025 20/20 Q1004 RMK 1ST004 3CU015 7CU025 A2967
RJFT 230815Z 36003KT 320V070 4000 -SHRA BR FEW004 SCT015 BKN030 20/20 Q1004 RMK 1ST004 3CU015 7CU030 A2966
RJFT 230800Z 05003KT 360V080 9999 FEW004 SCT015 BKN030 20/20 Q1004
RJFT 230709Z 11002KT 5000 -SHRA BR FEW001 BKN015 BKN020 20/20 Q1005 RMK 1ST001 5CU015 7CU020 A2968
RJFT 230700Z VRB02KT 4000 R07/1800U -SHRA BR FEW001 BKN015 BKN020 20/20 Q1005
RJFT 230636Z 20003KT 5000 -SHRA BR FEW005 BKN015 20/20 Q1005 RMK 1ST005 7CU015 A2970
RJFT 230623Z 22004KT 190V260 2500 -SHRA BR FEW005 SCT015 BKN020 20/20 Q1006 RMK 1ST005 3CU015 7CU020 A2971
RJFT 230619Z 23005KT 4000 -SHRA BR FEW005 SCT015 BKN020 20/20 Q1006 RMK 1ST005 3CU015 7CU020 A2971
RJFT 230600Z 22003KT 190V260 9999 -SHRA FEW007 SCT015 BKN020 20/20 Q1005
RJFT 230500Z 20003KT 150V270 9999 -SHRA FEW010 SCT020 BKN040 21/19 Q1005
RJFT 230400Z 12003KT 090V160 9999 -SHRA FEW002 SCT020 BKN050 21/19 Q1005
RJFT 230300Z 13004KT 9999 FEW002 SCT015 BKN030 20/19 Q1006
RJFT 230200Z 35003KT 310V040 9999 FEW002 BKN010 BKN015 18/18 Q1007
RJFT 230112Z 33011G21KT 6000 -SHRA FEW002 SCT008 BKN020 18/18 Q1005 RMK 2ST002 4CU008 5CU020 A2968
RJFT 230100Z 28016KT 2000 -SHRA BR FEW002 SCT020 BKN040 19/19 Q1005
RJFT 230046Z VRB02KT 4000 -SHRA BR FEW002 SCT020 BKN040 19/19 Q1004 RMK 2ST002 4CU020 7CU040 A2966 P/FR
RJFT 230032Z VRB03KT 4000 SHRA BR FEW002 SCT020 BKN040 19/19 Q1005 RMK 2ST002 4CU020 7CU040 A2968 P/FR
RJFT 230000Z 31003KT 270V350 4000 -SHRA BR FEW002 SCT020 BKN050 19/19 Q1006
RJFT 222311Z 35004KT 4000 -RA BR FEW003 BKN050 19/19 Q1006 RMK 2ST003 7SC050 A2972
RJFT 222300Z 35004KT 270V040 6000 -RA FEW003 BKN050 19/19 Q1006
RJFT 222200Z 02010KT 9999 FEW001 BKN050 OVC070 19/19 Q1005
RJFT 222110Z 11009KT 9999 -RA FEW001 BKN050 OVC070 20/18 Q1005 RMK 1ST001 5SC050 8AC070 A2968
RJFT 221200Z 11004KT 080V150 9999 FEW040 SCT170 BKN/// 25/16 Q1008
RJFT 221100Z 15003KT 120V210 9999 FEW040 SCT050 BKN/// 25/16 Q1008
RJFT 221000Z 24003KT 190V300 9999 FEW040 BKN050 BKN/// 26/20 Q1008
RJFT 220900Z 33003KT 290V020 9999 FEW040 BKN/// 26/19 Q1007
RJFT 220800Z 23004KT 190V300 9999 FEW045 BKN/// 29/15 Q1007
RJFT 220700Z 24005KT 150V280 9999 FEW045 SCT/// 30/15 Q1007
RJFT 220600Z 22006KT 180V250 9999 FEW045 BKN/// 30/17 Q1007
RJFT 220500Z 20007KT 140V230 9999 FEW045 BKN/// 30/19 Q1007
RJFT 220400Z 02008KT 9999 FEW045 BKN/// 30/14 Q1007
RJFT 220300Z VRB03KT 9999 FEW045 SCT/// 30/13 Q1008
RJFT 220200Z VRB03KT 9999 FEW040 BKN/// 27/19 Q1009
RJFT 220100Z VRB03KT 9999 FEW035 BKN/// 26/19 Q1009
RJFT 220000Z VRB02KT 9999 FEW030 BKN/// 24/19 Q1009
RJFT 212300Z 01007KT 9999 FEW010 BKN/// 23/19 Q1010
RJFT 212200Z 01004KT 9999 FEW010 BKN/// 21/20 Q1010
RJFT 212110Z 01003KT 9999 FEW010 BKN/// 19/19 Q1010 RMK 1ST010 A2982
RJFT 211200Z 18003KT 9999 FEW040 22/22 Q1009
RJFT 211100Z VRB02KT 9999 FEW040 22/19 Q1008
RJFT 211000Z 20005KT 160V230 9999 FEW035 SCT/// 24/19 Q1008
RJFT 210900Z 21006KT 180V240 9999 FEW035 BKN/// 25/19 Q1008
RJFT 210800Z 21006KT 160V260 9999 FEW035 BKN/// 26/19 Q1007